createdAt,value
2022-09-13T00:00:55.143Z,780.44
2022-09-13T00:01:55.085Z,780.07
2022-09-13T00:02:55.039Z,779.54
2022-09-13T00:03:55.045Z,779.06
2022-09-13T00:04:55.021Z,779.24
2022-09-13T00:05:55.105Z,779.29
2022-09-13T00:06:55.003Z,779.40
2022-09-13T00:07:54.977Z,779.40
2022-09-13T00:08:54.974Z,779.29
2022-09-13T00:09:54.960Z,779.33
2022-09-13T00:10:54.950Z,779.14
2022-09-13T00:11:54.946Z,779.22
2022-09-13T00:12:54.932Z,778.97
2022-09-13T00:13:54.912Z,778.76
2022-09-13T00:14:54.922Z,777.77
2022-09-13T00:15:54.899Z,776.43
2022-09-13T00:16:54.883Z,775.83
2022-09-13T00:17:54.877Z,775.48
2022-09-13T00:18:54.863Z,774.84
2022-09-13T00:19:54.851Z,774.02
2022-09-13T00:20:54.837Z,773.12
2022-09-13T00:21:54.846Z,771.83
2022-09-13T00:22:54.829Z,770.44
2022-09-13T00:23:54.801Z,769.45
2022-09-13T00:24:54.797Z,769.18
2022-09-13T00:25:54.783Z,768.99
2022-09-13T00:26:54.780Z,768.86
2022-09-13T00:27:54.756Z,768.72
2022-09-13T00:28:54.759Z,769.14
2022-09-13T00:29:54.733Z,769.52
2022-09-13T00:30:54.730Z,769.94
2022-09-13T00:31:54.781Z,770.09
2022-09-13T00:32:54.712Z,770.47
2022-09-13T00:33:54.706Z,770.85
2022-09-13T00:34:54.682Z,771.01
2022-09-13T00:35:54.666Z,770.95
2022-09-13T00:36:54.662Z,770.84
2022-09-13T00:37:54.666Z,770.53
2022-09-13T00:38:54.665Z,770.68
2022-09-13T00:39:54.723Z,770.65
2022-09-13T00:40:54.620Z,770.52
2022-09-13T00:41:54.603Z,770.71
2022-09-13T00:42:54.598Z,770.77
2022-09-13T00:43:54.577Z,770.72
2022-09-13T00:44:54.590Z,770.46
2022-09-13T00:46:02.147Z,770.31
2022-09-13T00:46:54.549Z,769.81
2022-09-13T00:47:54.532Z,769.38
2022-09-13T00:48:54.526Z,768.89
2022-09-13T00:49:54.534Z,768.62
2022-09-13T00:50:54.506Z,768.35
2022-09-13T00:51:54.488Z,768.36
2022-09-13T00:52:55.409Z,768.63
2022-09-13T00:53:54.486Z,768.76
2022-09-13T00:54:54.462Z,768.13
2022-09-13T00:55:54.456Z,768.04
2022-09-13T00:56:54.445Z,767.84
2022-09-13T00:57:54.424Z,767.00
2022-09-13T00:58:54.420Z,766.46
2022-09-13T00:59:54.416Z,766.00
2022-09-13T01:00:54.424Z,765.93
2022-09-13T01:01:54.412Z,765.81
2022-09-13T01:02:54.375Z,766.12
2022-09-13T01:03:54.365Z,766.25
2022-09-13T01:04:54.348Z,766.47
2022-09-13T01:05:54.348Z,766.77
2022-09-13T01:06:54.328Z,766.85
2022-09-13T01:07:54.312Z,766.86
2022-09-13T01:08:54.317Z,766.93
2022-09-13T01:09:54.310Z,766.30
2022-09-13T01:10:54.282Z,766.18
2022-09-13T01:11:54.266Z,765.86
2022-09-13T01:12:54.261Z,765.43
2022-09-13T01:13:54.261Z,765.10
2022-09-13T01:14:54.243Z,765.19
2022-09-13T01:15:54.222Z,765.35
2022-09-13T01:16:54.262Z,765.44
2022-09-13T01:17:54.211Z,765.31
2022-09-13T01:18:54.207Z,765.25
2022-09-13T01:19:54.197Z,765.08
2022-09-13T01:20:54.170Z,765.07
2022-09-13T01:21:54.157Z,764.92
2022-09-13T01:22:54.163Z,764.62
2022-09-13T01:23:54.135Z,764.20
2022-09-13T01:24:54.132Z,764.06
2022-09-13T01:25:54.134Z,763.67
2022-09-13T01:26:54.121Z,763.57
2022-09-13T01:27:54.096Z,763.72
2022-09-13T01:28:54.084Z,763.87
2022-09-13T01:29:54.069Z,764.12
2022-09-13T01:30:54.051Z,764.21
2022-09-13T01:31:54.196Z,764.37
2022-09-13T01:32:54.041Z,764.48
2022-09-13T01:33:54.029Z,764.62
2022-09-13T01:34:54.020Z,764.89
2022-09-13T01:35:54.003Z,765.03
2022-09-13T01:36:53.984Z,764.50
2022-09-13T01:37:53.977Z,764.24
2022-09-13T01:38:53.978Z,764.39
2022-09-13T01:39:54.066Z,764.28
2022-09-13T01:40:53.956Z,764.40
2022-09-13T01:41:53.955Z,764.48
2022-09-13T01:42:53.917Z,764.48
2022-09-13T01:43:53.919Z,764.62
2022-09-13T01:44:53.920Z,764.54
2022-09-13T01:45:54.004Z,764.58
2022-09-13T01:46:53.872Z,764.61
2022-09-13T01:47:53.867Z,764.85
2022-09-13T01:48:53.865Z,764.86
2022-09-13T01:49:53.843Z,764.94
2022-09-13T01:50:53.834Z,764.91
2022-09-13T01:51:53.837Z,764.83
2022-09-13T01:52:53.814Z,764.83
2022-09-13T01:53:53.808Z,764.83
2022-09-13T01:54:53.796Z,764.76
2022-09-13T01:55:53.798Z,764.88
2022-09-13T01:56:53.770Z,764.79
2022-09-13T01:57:53.773Z,764.97
2022-09-13T01:58:53.755Z,764.95
2022-09-13T01:59:53.741Z,764.82
2022-09-13T02:00:53.783Z,764.90
2022-09-13T02:01:53.753Z,764.82
2022-09-13T02:02:53.692Z,764.86
2022-09-13T02:03:53.687Z,764.89
2022-09-13T02:04:53.682Z,764.82
2022-09-13T02:05:53.679Z,764.95
2022-09-13T02:06:53.647Z,764.92
2022-09-13T02:07:53.645Z,764.78
2022-09-13T02:08:53.625Z,764.83
2022-09-13T02:09:53.619Z,764.90
2022-09-13T02:10:53.606Z,764.89
2022-09-13T02:11:53.627Z,764.90
2022-09-13T02:12:53.581Z,764.90
2022-09-13T02:13:53.592Z,764.99
2022-09-13T02:14:53.556Z,765.12
2022-09-13T02:15:53.556Z,765.00
2022-09-13T02:16:53.615Z,764.99
2022-09-13T02:17:53.531Z,764.85
2022-09-13T02:18:53.533Z,764.91
2022-09-13T02:19:53.504Z,765.01
2022-09-13T02:20:53.494Z,764.90
2022-09-13T02:21:54.433Z,764.96
2022-09-13T02:22:53.467Z,764.94
2022-09-13T02:23:53.471Z,764.94
2022-09-13T02:24:53.449Z,765.04
2022-09-13T02:25:53.450Z,765.12
2022-09-13T02:26:53.454Z,764.64
2022-09-13T02:27:53.416Z,763.97
2022-09-13T02:28:53.408Z,763.28
2022-09-13T02:29:53.415Z,763.13
2022-09-13T02:30:53.381Z,762.97
2022-09-13T02:31:53.453Z,762.92
2022-09-13T02:32:53.366Z,762.93
2022-09-13T02:33:53.348Z,762.96
2022-09-13T02:34:53.333Z,763.05
2022-09-13T02:35:53.325Z,763.18
2022-09-13T02:36:53.309Z,763.08
2022-09-13T02:37:53.328Z,763.21
2022-09-13T02:38:53.290Z,763.26
2022-09-13T02:39:53.354Z,763.44
2022-09-13T02:40:53.263Z,763.51
2022-09-13T02:41:53.256Z,763.58
2022-09-13T02:42:53.256Z,763.78
2022-09-13T02:43:53.246Z,763.84
2022-09-13T02:44:53.222Z,763.82
2022-09-13T02:45:53.333Z,763.93
2022-09-13T02:47:00.702Z,764.00
2022-09-13T02:47:53.189Z,763.98
2022-09-13T02:48:53.175Z,764.21
2022-09-13T02:49:53.165Z,764.32
2022-09-13T02:50:53.162Z,764.27
2022-09-13T02:51:53.143Z,764.34
2022-09-13T02:52:53.140Z,764.28
2022-09-13T02:53:53.123Z,764.83
2022-09-13T02:54:53.104Z,765.13
2022-09-13T02:55:53.101Z,765.20
2022-09-13T02:56:53.096Z,765.37
2022-09-13T02:57:53.078Z,765.64
2022-09-13T02:58:53.080Z,766.66
2022-09-13T02:59:53.066Z,767.33
2022-09-13T03:00:53.090Z,767.87
2022-09-13T03:01:53.133Z,768.41
2022-09-13T03:02:53.017Z,768.87
2022-09-13T03:03:53.022Z,769.28
2022-09-13T03:04:52.993Z,769.53
2022-09-13T03:05:52.993Z,769.90
2022-09-13T03:06:52.971Z,770.39
2022-09-13T03:07:52.974Z,770.54
2022-09-13T03:08:52.975Z,771.13
2022-09-13T03:09:52.949Z,771.53
2022-09-13T03:10:52.926Z,771.81
2022-09-13T03:11:52.932Z,772.02
2022-09-13T03:12:52.918Z,771.95
2022-09-13T03:13:52.905Z,771.79
2022-09-13T03:14:52.881Z,771.81
2022-09-13T03:15:52.874Z,772.32
2022-09-13T03:16:52.896Z,772.48
2022-09-13T03:17:52.888Z,773.09
2022-09-13T03:18:52.849Z,773.17
2022-09-13T03:19:52.845Z,773.59
2022-09-13T03:20:52.832Z,773.86
2022-09-13T03:21:52.826Z,774.13
2022-09-13T03:22:52.824Z,774.04
2022-09-13T03:23:52.796Z,773.86
2022-09-13T03:24:52.779Z,774.01
2022-09-13T03:25:52.778Z,774.19
2022-09-13T03:26:52.745Z,774.60
2022-09-13T03:27:52.750Z,774.77
2022-09-13T03:28:52.733Z,774.90
2022-09-13T03:29:52.726Z,774.85
2022-09-13T03:30:52.711Z,774.91
2022-09-13T03:31:52.837Z,774.81
2022-09-13T03:32:52.682Z,774.83
2022-09-13T03:33:52.695Z,774.83
2022-09-13T03:34:52.666Z,774.69
2022-09-13T03:35:52.649Z,774.65
2022-09-13T03:36:52.637Z,774.67
2022-09-13T03:37:52.640Z,774.70
2022-09-13T03:38:52.628Z,774.69
2022-09-13T03:39:52.691Z,774.78
2022-09-13T03:40:52.604Z,774.93
2022-09-13T03:41:52.594Z,775.07
2022-09-13T03:42:52.584Z,775.17
2022-09-13T03:43:52.565Z,775.36
2022-09-13T03:44:52.567Z,775.38
2022-09-13T03:45:52.621Z,775.34
2022-09-13T03:46:52.521Z,775.35
2022-09-13T03:47:52.514Z,775.30
2022-09-13T03:48:52.545Z,775.39
2022-09-13T03:49:52.565Z,775.06
2022-09-13T03:50:52.610Z,774.89
2022-09-13T03:51:52.467Z,774.86
2022-09-13T03:52:52.462Z,774.66
2022-09-13T03:53:52.446Z,774.40
2022-09-13T03:54:52.445Z,774.34
2022-09-13T03:55:52.423Z,774.30
2022-09-13T03:56:52.410Z,774.27
2022-09-13T03:57:52.401Z,774.29
2022-09-13T03:58:52.385Z,774.35
2022-09-13T03:59:52.390Z,774.44
2022-09-13T04:00:52.398Z,774.59
2022-09-13T04:01:52.417Z,774.66
2022-09-13T04:02:52.357Z,774.61
2022-09-13T04:03:56.349Z,774.66
2022-09-13T04:04:52.328Z,774.69
2022-09-13T04:05:52.334Z,774.79
2022-09-13T04:06:52.294Z,774.88
2022-09-13T04:07:52.287Z,774.87
2022-09-13T04:08:52.282Z,774.84
2022-09-13T04:09:52.276Z,775.01
2022-09-13T04:10:52.252Z,775.01
2022-09-13T04:11:52.247Z,774.99
2022-09-13T04:12:52.243Z,775.06
2022-09-13T04:13:52.499Z,775.09
2022-09-13T04:14:52.216Z,775.13
2022-09-13T04:15:52.221Z,775.09
2022-09-13T04:16:52.184Z,775.18
2022-09-13T04:17:52.176Z,775.20
2022-09-13T04:18:52.161Z,775.39
2022-09-13T04:19:52.160Z,775.31
2022-09-13T04:20:52.137Z,775.28
2022-09-13T04:21:52.163Z,775.39
2022-09-13T04:22:52.122Z,775.36
2022-09-13T04:23:52.110Z,775.37
2022-09-13T04:24:52.092Z,775.42
2022-09-13T04:25:52.085Z,775.45
2022-09-13T04:26:52.068Z,775.31
2022-09-13T04:27:52.074Z,774.95
2022-09-13T04:28:52.046Z,774.68
2022-09-13T04:29:52.039Z,774.62
2022-09-13T04:30:52.055Z,774.49
2022-09-13T04:31:52.059Z,774.42
2022-09-13T04:32:52.006Z,774.47
2022-09-13T04:33:51.994Z,774.42
2022-09-13T04:34:51.985Z,774.40
2022-09-13T04:35:51.984Z,774.28
2022-09-13T04:36:51.961Z,774.33
2022-09-13T04:37:52.055Z,774.22
2022-09-13T04:38:51.949Z,774.31
2022-09-13T04:39:51.951Z,774.18
2022-09-13T04:40:51.924Z,774.29
2022-09-13T04:41:51.945Z,774.30
2022-09-13T04:42:51.887Z,774.31
2022-09-13T04:43:51.881Z,774.20
2022-09-13T04:44:51.866Z,774.34
2022-09-13T04:45:51.940Z,774.26
2022-09-13T04:46:51.849Z,774.01
2022-09-13T04:47:59.353Z,773.85
2022-09-13T04:48:51.833Z,773.71
2022-09-13T04:49:51.813Z,773.57
2022-09-13T04:50:51.798Z,773.46
2022-09-13T04:51:51.791Z,773.19
2022-09-13T04:52:51.785Z,773.09
2022-09-13T04:53:51.787Z,773.00
2022-09-13T04:54:51.759Z,772.84
2022-09-13T04:55:51.750Z,772.56
2022-09-13T04:56:51.732Z,772.13
2022-09-13T04:57:51.736Z,771.65
2022-09-13T04:58:51.711Z,770.84
2022-09-13T04:59:51.703Z,770.28
2022-09-13T05:00:51.754Z,770.25
2022-09-13T05:01:51.745Z,770.02
2022-09-13T05:02:51.664Z,769.94
2022-09-13T05:03:51.665Z,769.99
2022-09-13T05:04:51.642Z,769.89
2022-09-13T05:05:51.633Z,770.01
2022-09-13T05:06:51.631Z,770.00
2022-09-13T05:07:51.610Z,770.00
2022-09-13T05:08:51.608Z,769.86
2022-09-13T05:09:51.613Z,769.83
2022-09-13T05:10:51.574Z,769.66
2022-09-13T05:11:51.570Z,769.61
2022-09-13T05:12:51.550Z,769.52
2022-09-13T05:13:51.554Z,769.64
2022-09-13T05:14:51.528Z,769.59
2022-09-13T05:15:52.621Z,769.91
2022-09-13T05:16:51.508Z,770.06
2022-09-13T05:17:51.496Z,770.05
2022-09-13T05:18:51.726Z,769.99
2022-09-13T05:19:51.486Z,769.98
2022-09-13T05:20:51.466Z,770.05
2022-09-13T05:21:51.460Z,769.96
2022-09-13T05:22:51.452Z,770.14
2022-09-13T05:23:51.433Z,770.23
2022-09-13T05:24:51.432Z,770.45
2022-09-13T05:25:51.439Z,770.47
2022-09-13T05:26:51.394Z,770.49
2022-09-13T05:27:51.391Z,770.53
2022-09-13T05:28:51.373Z,770.71
2022-09-13T05:29:51.375Z,770.64
2022-09-13T05:30:51.361Z,770.57
2022-09-13T05:31:51.339Z,770.42
2022-09-13T05:32:51.353Z,770.42
2022-09-13T05:33:51.355Z,770.27
2022-09-13T05:34:51.989Z,770.21
2022-09-13T05:35:51.443Z,770.15
2022-09-13T05:36:54.130Z,769.96
2022-09-13T05:37:51.286Z,769.75
2022-09-13T05:39:06.550Z,769.59
2022-09-13T05:40:10.567Z,769.51
2022-09-13T05:40:54.106Z,769.32
2022-09-13T05:41:51.222Z,769.19
2022-09-13T05:42:51.223Z,768.91
2022-09-13T05:43:53.367Z,768.75
2022-09-13T05:44:51.201Z,768.42
2022-09-13T05:45:51.221Z,768.09
2022-09-13T05:46:51.250Z,767.51
2022-09-13T05:47:51.157Z,767.15
2022-09-13T05:48:51.151Z,766.75
2022-09-13T05:50:09.367Z,766.32
2022-09-13T05:50:58.307Z,766.08
2022-09-13T05:51:52.109Z,765.68
2022-09-13T05:52:51.128Z,765.24
2022-09-13T05:53:51.121Z,764.85
2022-09-13T05:54:51.103Z,764.54
2022-09-13T05:55:51.077Z,764.24
2022-09-13T05:56:51.142Z,764.02
2022-09-13T05:57:51.998Z,763.93
2022-09-13T05:58:51.049Z,763.57
2022-09-13T05:59:52.068Z,763.42
2022-09-13T06:00:51.020Z,763.13
2022-09-13T06:01:51.083Z,762.82
2022-09-13T06:02:51.044Z,762.39
2022-09-13T06:03:50.997Z,761.96
2022-09-13T06:04:51.000Z,761.81
2022-09-13T06:05:50.975Z,761.44
2022-09-13T06:06:50.960Z,761.06
2022-09-13T06:07:50.960Z,760.78
2022-09-13T06:08:50.925Z,760.38
2022-09-13T06:09:50.909Z,759.90
2022-09-13T06:10:50.950Z,759.54
2022-09-13T06:11:51.910Z,759.08
2022-09-13T06:12:52.655Z,758.71
2022-09-13T06:13:50.897Z,758.32
2022-09-13T06:14:51.599Z,757.87
2022-09-13T06:15:51.006Z,757.47
2022-09-13T06:16:50.856Z,756.94
2022-09-13T06:17:51.844Z,756.39
2022-09-13T06:18:51.539Z,755.72
2022-09-13T06:19:50.861Z,755.31
2022-09-13T06:20:50.839Z,755.15
2022-09-13T06:21:51.511Z,754.70
2022-09-13T06:22:50.768Z,754.36
2022-09-13T06:23:50.778Z,753.96
2022-09-13T06:24:51.504Z,753.62
2022-09-13T06:25:50.778Z,753.40
2022-09-13T06:26:50.740Z,752.87
2022-09-13T06:27:50.720Z,752.28
2022-09-13T06:28:50.987Z,752.00
2022-09-13T06:29:50.686Z,751.79
2022-09-13T06:30:50.698Z,751.36
2022-09-13T06:31:50.664Z,751.34
2022-09-13T06:32:50.661Z,751.48
2022-09-13T06:33:50.650Z,751.57
2022-09-13T06:34:50.633Z,751.35
2022-09-13T06:35:50.632Z,750.97
2022-09-13T06:36:50.612Z,750.31
2022-09-13T06:37:50.599Z,750.16
2022-09-13T06:38:50.705Z,749.75
2022-09-13T06:39:50.616Z,749.51
2022-09-13T06:40:50.567Z,749.48
2022-09-13T06:41:50.555Z,749.47
2022-09-13T06:42:50.566Z,749.17
2022-09-13T06:43:50.543Z,748.85
2022-09-13T06:44:50.546Z,748.76
2022-09-13T06:45:50.656Z,748.53
2022-09-13T06:46:50.514Z,748.35
2022-09-13T06:47:50.512Z,748.27
2022-09-13T06:48:58.023Z,748.42
2022-09-13T06:49:50.471Z,748.38
2022-09-13T06:50:50.457Z,748.10
2022-09-13T06:51:50.465Z,747.82
2022-09-13T06:52:50.435Z,748.16
2022-09-13T06:53:50.425Z,748.56
2022-09-13T06:54:50.426Z,748.48
2022-09-13T06:55:50.397Z,748.35
2022-09-13T06:56:50.397Z,748.21
2022-09-13T06:57:50.387Z,747.97
2022-09-13T06:58:50.536Z,748.20
2022-09-13T06:59:50.356Z,747.80
2022-09-13T07:00:55.447Z,747.81
2022-09-13T07:01:51.418Z,747.98
2022-09-13T07:02:50.343Z,747.79
2022-09-13T07:03:50.324Z,747.11
2022-09-13T07:04:50.376Z,746.72
2022-09-13T07:05:50.317Z,746.03
2022-09-13T07:06:50.286Z,745.41
2022-09-13T07:07:50.272Z,744.77
2022-09-13T07:08:50.487Z,744.16
2022-09-13T07:09:50.260Z,744.07
2022-09-13T07:10:50.239Z,744.36
2022-09-13T07:11:50.231Z,743.78
2022-09-13T07:12:50.215Z,743.34
2022-09-13T07:13:50.211Z,743.08
2022-09-13T07:14:50.221Z,743.04
2022-09-13T07:15:50.281Z,742.64
2022-09-13T07:16:50.302Z,742.42
2022-09-13T07:17:50.155Z,742.48
2022-09-13T07:18:50.311Z,742.81
2022-09-13T07:19:50.149Z,742.34
2022-09-13T07:20:50.128Z,741.71
2022-09-13T07:21:50.113Z,740.94
2022-09-13T07:22:50.105Z,740.02
2022-09-13T07:23:50.160Z,739.16
2022-09-13T07:24:50.083Z,737.53
2022-09-13T07:25:50.099Z,737.51
2022-09-13T07:26:50.155Z,738.17
2022-09-13T07:27:50.577Z,737.35
2022-09-13T07:28:50.287Z,735.93
2022-09-13T07:29:50.029Z,734.61
2022-09-13T07:30:50.072Z,733.37
2022-09-13T07:31:50.034Z,732.53
2022-09-13T07:32:50.021Z,732.77
2022-09-13T07:33:49.973Z,733.68
2022-09-13T07:34:49.967Z,734.28
2022-09-13T07:35:49.975Z,733.95
2022-09-13T07:36:49.953Z,734.17
2022-09-13T07:37:50.252Z,733.46
2022-09-13T07:38:50.132Z,732.21
2022-09-13T07:39:50.008Z,731.76
2022-09-13T07:40:50.648Z,732.44
2022-09-13T07:41:49.929Z,732.80
2022-09-13T07:42:50.558Z,733.51
2022-09-13T07:43:49.865Z,733.44
2022-09-13T07:44:49.904Z,732.68
2022-09-13T07:45:49.908Z,731.64
2022-09-13T07:46:49.846Z,731.72
2022-09-13T07:47:49.821Z,730.43
2022-09-13T07:48:50.079Z,728.66
2022-09-13T07:49:49.812Z,728.29
2022-09-13T07:50:49.792Z,727.58
2022-09-13T07:51:49.775Z,728.36
2022-09-13T07:52:50.575Z,728.46
2022-09-13T07:53:53.625Z,728.57
2022-09-13T07:54:51.158Z,727.57
2022-09-13T07:55:49.729Z,728.52
2022-09-13T07:56:49.736Z,728.62
2022-09-13T07:57:49.713Z,728.29
2022-09-13T07:58:49.875Z,727.47
2022-09-13T07:59:49.693Z,728.24
2022-09-13T08:00:49.683Z,728.59
2022-09-13T08:01:49.808Z,728.21
2022-09-13T08:02:49.773Z,727.82
2022-09-13T08:03:49.854Z,727.55
2022-09-13T08:04:49.669Z,727.60
2022-09-13T08:05:49.626Z,726.75
2022-09-13T08:06:49.697Z,725.82
2022-09-13T08:07:49.608Z,725.66
2022-09-13T08:08:49.607Z,725.20
2022-09-13T08:09:49.939Z,725.29
2022-09-13T08:10:49.718Z,725.11
2022-09-13T08:11:49.654Z,724.91
2022-09-13T08:12:49.590Z,724.55
2022-09-13T08:13:49.645Z,724.57
2022-09-13T08:14:49.544Z,724.61
2022-09-13T08:15:49.545Z,724.68
2022-09-13T08:16:49.506Z,725.06
2022-09-13T08:17:49.496Z,725.05
2022-09-13T08:18:49.523Z,725.02
2022-09-13T08:19:49.498Z,724.62
2022-09-13T08:20:49.534Z,724.38
2022-09-13T08:21:49.459Z,723.72
2022-09-13T08:22:49.467Z,723.48
2022-09-13T08:23:49.557Z,723.49
2022-09-13T08:24:49.411Z,723.67
2022-09-13T08:25:49.403Z,723.49
2022-09-13T08:26:49.394Z,723.36
2022-09-13T08:27:49.373Z,722.73
2022-09-13T08:28:49.381Z,722.69
2022-09-13T08:29:49.409Z,722.46
2022-09-13T08:30:49.400Z,721.97
2022-09-13T08:31:49.339Z,721.51
2022-09-13T08:32:49.613Z,721.17
2022-09-13T08:33:49.619Z,720.08
2022-09-13T08:34:49.313Z,720.24
2022-09-13T08:35:49.290Z,721.82
2022-09-13T08:36:49.298Z,722.25
2022-09-13T08:37:49.273Z,722.07
2022-09-13T08:38:49.273Z,721.68
2022-09-13T08:39:49.291Z,720.62
2022-09-13T08:40:49.243Z,719.58
2022-09-13T08:41:49.254Z,718.97
2022-09-13T08:42:49.212Z,718.84
2022-09-13T08:43:49.890Z,719.46
2022-09-13T08:44:49.203Z,719.30
2022-09-13T08:45:49.218Z,719.30
2022-09-13T08:46:49.170Z,719.04
2022-09-13T08:47:49.175Z,719.10
2022-09-13T08:48:49.158Z,719.34
2022-09-13T08:49:56.687Z,719.37
2022-09-13T08:50:49.130Z,719.96
2022-09-13T08:51:49.121Z,720.53
2022-09-13T08:52:49.244Z,720.98
2022-09-13T08:53:49.184Z,720.39
2022-09-13T08:54:49.106Z,720.55
2022-09-13T08:55:49.096Z,721.46
2022-09-13T08:56:49.106Z,722.23
2022-09-13T08:57:49.067Z,722.97
2022-09-13T08:58:49.034Z,723.30
2022-09-13T08:59:49.067Z,723.58
2022-09-13T09:00:49.017Z,723.35
2022-09-13T09:01:49.069Z,723.71
2022-09-13T09:02:49.084Z,723.95
2022-09-13T09:03:49.714Z,723.83
2022-09-13T09:04:49.003Z,723.87
2022-09-13T09:05:49.066Z,723.88
2022-09-13T09:06:48.993Z,723.61
2022-09-13T09:07:49.611Z,723.38
2022-09-13T09:08:48.956Z,723.42
2022-09-13T09:09:48.920Z,723.43
2022-09-13T09:10:48.918Z,722.83
2022-09-13T09:11:48.985Z,722.55
2022-09-13T09:12:48.949Z,722.80
2022-09-13T09:13:49.288Z,722.44
2022-09-13T09:14:48.877Z,723.13
2022-09-13T09:15:48.880Z,722.88
2022-09-13T09:16:48.868Z,722.17
2022-09-13T09:17:48.887Z,721.39
2022-09-13T09:18:48.817Z,721.22
2022-09-13T09:19:48.803Z,721.74
2022-09-13T09:20:48.802Z,721.56
2022-09-13T09:21:48.774Z,721.30
2022-09-13T09:22:48.815Z,721.37
2022-09-13T09:23:48.936Z,721.27
2022-09-13T09:24:48.792Z,721.14
2022-09-13T09:25:49.662Z,721.53
2022-09-13T09:26:48.734Z,721.59
2022-09-13T09:27:48.718Z,721.23
2022-09-13T09:28:48.715Z,720.70
2022-09-13T09:29:48.695Z,720.50
2022-09-13T09:30:48.802Z,720.77
2022-09-13T09:31:48.694Z,721.20
2022-09-13T09:32:48.660Z,722.56
2022-09-13T09:33:48.712Z,723.28
2022-09-13T09:34:48.701Z,723.17
2022-09-13T09:35:48.672Z,723.29
2022-09-13T09:36:48.611Z,723.61
2022-09-13T09:37:48.641Z,724.36
2022-09-13T09:38:48.600Z,725.08
2022-09-13T09:39:48.638Z,725.21
2022-09-13T09:40:48.671Z,725.20
2022-09-13T09:41:48.558Z,725.22
2022-09-13T09:42:48.550Z,724.71
2022-09-13T09:43:48.690Z,724.36
2022-09-13T09:44:48.524Z,723.88
2022-09-13T09:45:48.551Z,723.49
2022-09-13T09:46:48.517Z,723.80
2022-09-13T09:47:48.491Z,723.65
2022-09-13T09:48:48.500Z,723.79
2022-09-13T09:49:48.490Z,722.96
2022-09-13T09:50:48.454Z,722.55
2022-09-13T09:51:48.481Z,722.48
2022-09-13T09:52:48.431Z,722.72
2022-09-13T09:53:48.616Z,722.32
2022-09-13T09:54:48.417Z,721.93
2022-09-13T09:55:48.403Z,721.15
2022-09-13T09:56:48.434Z,720.55
2022-09-13T09:57:52.296Z,720.06
2022-09-13T09:58:48.392Z,719.85
2022-09-13T09:59:48.379Z,719.69
2022-09-13T10:00:48.378Z,719.90
2022-09-13T10:01:51.239Z,719.32
2022-09-13T10:02:49.481Z,719.19
2022-09-13T10:03:48.407Z,718.77
2022-09-13T10:04:48.313Z,718.25
2022-09-13T10:05:48.310Z,717.24
2022-09-13T10:06:48.322Z,717.31
2022-09-13T10:07:48.306Z,717.73
2022-09-13T10:08:48.252Z,717.11
2022-09-13T10:09:48.282Z,718.55
2022-09-13T10:10:48.230Z,718.13
2022-09-13T10:11:48.235Z,717.82
2022-09-13T10:12:48.371Z,720.36
2022-09-13T10:13:48.314Z,720.56
2022-09-13T10:14:48.190Z,720.15
2022-09-13T10:15:49.151Z,720.30
2022-09-13T10:16:48.191Z,719.29
2022-09-13T10:17:48.188Z,718.90
2022-09-13T10:18:48.166Z,717.83
2022-09-13T10:19:48.160Z,717.07
2022-09-13T10:20:48.121Z,716.36
2022-09-13T10:21:48.146Z,716.01
2022-09-13T10:22:48.102Z,716.13
2022-09-13T10:23:48.114Z,715.83
2022-09-13T10:24:48.094Z,715.64
2022-09-13T10:25:48.211Z,714.93
2022-09-13T10:26:48.059Z,714.97
2022-09-13T10:27:48.079Z,714.51
2022-09-13T10:28:48.347Z,715.21
2022-09-13T10:29:48.084Z,714.85
2022-09-13T10:30:48.079Z,714.53
2022-09-13T10:31:48.007Z,714.73
2022-09-13T10:32:47.994Z,714.23
2022-09-13T10:33:48.004Z,713.61
2022-09-13T10:34:47.972Z,713.49
2022-09-13T10:35:47.964Z,715.77
2022-09-13T10:36:52.577Z,716.07
2022-09-13T10:37:48.997Z,715.10
2022-09-13T10:38:48.069Z,715.42
2022-09-13T10:39:48.023Z,715.90
2022-09-13T10:40:47.915Z,715.97
2022-09-13T10:41:47.923Z,715.75
2022-09-13T10:42:47.910Z,715.40
2022-09-13T10:43:47.942Z,714.61
2022-09-13T10:44:47.974Z,714.54
2022-09-13T10:45:47.890Z,714.28
2022-09-13T10:46:47.837Z,714.97
2022-09-13T10:47:47.836Z,715.47
2022-09-13T10:48:48.719Z,715.13
2022-09-13T10:49:47.822Z,715.41
2022-09-13T10:50:55.822Z,715.70
2022-09-13T10:51:47.809Z,716.02
2022-09-13T10:52:47.782Z,715.42
2022-09-13T10:53:47.776Z,715.56
2022-09-13T10:54:47.746Z,717.26
2022-09-13T10:55:47.739Z,718.81
2022-09-13T10:56:47.729Z,718.28
2022-09-13T10:57:47.719Z,717.09
2022-09-13T10:58:47.703Z,716.01
2022-09-13T10:59:47.714Z,715.02
2022-09-13T11:00:47.754Z,714.11
2022-09-13T11:01:47.742Z,714.00
2022-09-13T11:02:47.678Z,714.43
2022-09-13T11:03:47.725Z,714.10
2022-09-13T11:04:48.661Z,714.59
2022-09-13T11:05:47.647Z,716.83
2022-09-13T11:06:47.628Z,716.73
2022-09-13T11:07:47.689Z,715.41
2022-09-13T11:08:48.204Z,714.41
2022-09-13T11:09:47.606Z,713.64
2022-09-13T11:10:47.598Z,712.88
2022-09-13T11:11:47.575Z,712.96
2022-09-13T11:12:47.554Z,713.11
2022-09-13T11:13:47.715Z,713.78
2022-09-13T11:14:47.536Z,714.95
2022-09-13T11:15:47.524Z,716.06
2022-09-13T11:16:47.586Z,715.97
2022-09-13T11:17:47.937Z,716.21
2022-09-13T11:18:47.503Z,716.61
2022-09-13T11:19:48.288Z,716.89
2022-09-13T11:20:47.641Z,716.84
2022-09-13T11:21:48.167Z,717.37
2022-09-13T11:22:47.451Z,717.00
2022-09-13T11:23:47.443Z,716.88
2022-09-13T11:24:47.453Z,716.75
2022-09-13T11:25:48.205Z,716.34
2022-09-13T11:26:47.394Z,716.36
2022-09-13T11:27:47.389Z,715.70
2022-09-13T11:28:47.383Z,715.61
2022-09-13T11:29:47.365Z,716.89
2022-09-13T11:30:47.353Z,716.57
2022-09-13T11:31:47.430Z,716.46
2022-09-13T11:32:47.348Z,717.13
2022-09-13T11:33:47.371Z,717.11
2022-09-13T11:34:47.321Z,716.56
2022-09-13T11:35:48.365Z,715.35
2022-09-13T11:36:47.283Z,715.03
2022-09-13T11:37:47.278Z,714.09
2022-09-13T11:38:47.269Z,713.94
2022-09-13T11:39:47.316Z,713.94
2022-09-13T11:40:47.239Z,714.29
2022-09-13T11:41:47.376Z,714.28
2022-09-13T11:42:47.299Z,713.69
2022-09-13T11:43:47.285Z,712.65
2022-09-13T11:44:47.413Z,712.74
2022-09-13T11:45:47.320Z,713.95
2022-09-13T11:46:47.175Z,713.73
2022-09-13T11:47:47.182Z,714.06
2022-09-13T11:48:47.718Z,713.37
2022-09-13T11:49:47.178Z,712.23
2022-09-13T11:50:47.138Z,712.34
2022-09-13T11:51:47.130Z,712.17
2022-09-13T11:52:47.117Z,711.35
2022-09-13T11:53:47.753Z,710.35
2022-09-13T11:54:47.905Z,710.00
2022-09-13T11:55:47.175Z,709.98
2022-09-13T11:56:47.516Z,710.56
2022-09-13T11:57:47.684Z,709.30
2022-09-13T11:58:47.921Z,708.90
2022-09-13T11:59:53.943Z,709.14
2022-09-13T12:00:49.766Z,709.40
2022-09-13T12:01:47.743Z,710.15
2022-09-13T12:02:47.883Z,709.93
2022-09-13T12:03:47.289Z,710.11
2022-09-13T12:04:59.490Z,709.63
2022-09-13T12:05:55.752Z,709.09
2022-09-13T12:08:24.290Z,707.61
2022-09-13T12:09:24.255Z,707.82
2022-09-13T12:10:24.244Z,709.23
2022-09-13T12:11:24.235Z,709.22
2022-09-13T12:12:24.210Z,709.20
2022-09-13T12:13:24.208Z,708.90
2022-09-13T12:14:24.198Z,708.95
2022-09-13T12:15:24.178Z,708.75
2022-09-13T12:16:24.251Z,708.48
2022-09-13T12:17:24.182Z,709.01
2022-09-13T12:18:24.139Z,709.78
2022-09-13T12:19:24.147Z,709.93
2022-09-13T12:20:24.149Z,709.84
2022-09-13T12:21:24.155Z,709.69
2022-09-13T12:22:27.624Z,709.88
2022-09-13T12:23:25.105Z,710.34
2022-09-13T12:24:24.076Z,710.40
2022-09-13T12:25:24.071Z,710.86
2022-09-13T12:26:24.054Z,710.05
2022-09-13T12:27:24.060Z,709.58
2022-09-13T12:28:24.034Z,708.55
2022-09-13T12:29:24.038Z,708.43
2022-09-13T12:30:24.910Z,708.08